Argyle, Missouri
Current Conditions -  °F | °C
As of 3:12 AM on Friday 31 Oct 2014 (Local Time) from KVIH Reporting Station
Overcast Overcast  
Wind Chill:   Ceiling: 8500
Heat Index:   Visibility: 7mi
Dew Point:   Wind: 10mph
Humidity: 93%   Direction: 340°NNW
Pressure: 30.09"   Gusts: NA
Location:  38.29°N, 92.03°W
Report Text: KVIH 310812Z AUTO 34009KT 7SM SCT002 OVC085 07/06 A3009 RMK AO2 T00720061
Loading
Personal Weather Stations






























Interactive Weather Map
Tropical Storm Tracking
New forecast layout! Learn more

10-Day Weather Forecast

Advertisements
Track Severe Weather on mobile